sensor_id;sensor_type;location;lat;lon;timestamp;pressure;altitude;pressure_sealevel;temperature;humidity
72525;BME280;60547;48.502;8.996;2023-04-27T00:01:38;97994.72;;;7.90;79.11
72525;BME280;60547;48.502;8.996;2023-04-27T00:04:04;97991.63;;;7.85;78.99
72525;BME280;60547;48.502;8.996;2023-04-27T00:06:30;97990.75;;;7.91;79.20
72525;BME280;60547;48.502;8.996;2023-04-27T00:08:57;97989.25;;;7.87;79.30
72525;BME280;60547;48.502;8.996;2023-04-27T00:11:23;97988.56;;;7.79;79.67
72525;BME280;60547;48.502;8.996;2023-04-27T00:13:49;97990.50;;;7.82;80.57
72525;BME280;60547;48.502;8.996;2023-04-27T00:16:14;97970.44;;;7.71;80.61
72525;BME280;60547;48.502;8.996;2023-04-27T00:18:40;97975.63;;;7.69;80.92
72525;BME280;60547;48.502;8.996;2023-04-27T00:21:08;97985.88;;;7.72;81.21
72525;BME280;60547;48.502;8.996;2023-04-27T00:23:34;97975.66;;;7.65;80.98
72525;BME280;60547;48.502;8.996;2023-04-27T00:25:59;97967.03;;;7.60;80.85
72525;BME280;60547;48.502;8.996;2023-04-27T00:28:25;97966.28;;;7.56;81.46
72525;BME280;60547;48.502;8.996;2023-04-27T00:30:51;97968.97;;;7.63;81.11
72525;BME280;60547;48.502;8.996;2023-04-27T00:33:19;97965.84;;;7.61;81.26
72525;BME280;60547;48.502;8.996;2023-04-27T00:35:44;97973.72;;;7.62;81.75
72525;BME280;60547;48.502;8.996;2023-04-27T00:38:10;97972.16;;;7.61;81.58
72525;BME280;60547;48.502;8.996;2023-04-27T00:40:37;97962.25;;;7.64;81.84
72525;BME280;60547;48.502;8.996;2023-04-27T00:43:02;97979.19;;;7.69;81.85
72525;BME280;60547;48.502;8.996;2023-04-27T00:45:28;97952.09;;;7.54;81.38
72525;BME280;60547;48.502;8.996;2023-04-27T00:47:54;97960.72;;;7.59;81.49
72525;BME280;60547;48.502;8.996;2023-04-27T00:50:26;97962.66;;;7.62;80.78
72525;BME280;60547;48.502;8.996;2023-04-27T00:52:55;97956.34;;;7.62;80.94
72525;BME280;60547;48.502;8.996;2023-04-27T00:55:21;97966.16;;;7.66;80.92
72525;BME280;60547;48.502;8.996;2023-04-27T00:57:47;97968.97;;;7.63;80.59
72525;BME280;60547;48.502;8.996;2023-04-27T01:00:13;97952.03;;;7.57;80.84
72525;BME280;60547;48.502;8.996;2023-04-27T01:02:40;97954.75;;;7.61;80.64
72525;BME280;60547;48.502;8.996;2023-04-27T01:05:06;97967.41;;;7.62;80.47
72525;BME280;60547;48.502;8.996;2023-04-27T01:07:36;97965.78;;;7.64;80.96
72525;BME280;60547;48.502;8.996;2023-04-27T01:10:02;97958.38;;;7.58;80.81
72525;BME280;60547;48.502;8.996;2023-04-27T01:12:27;97953.31;;;7.49;80.96
72525;BME280;60547;48.502;8.996;2023-04-27T01:14:53;97956.22;;;7.38;80.25
72525;BME280;60547;48.502;8.996;2023-04-27T01:17:18;97947.50;;;7.40;79.67
72525;BME280;60547;48.502;8.996;2023-04-27T01:19:45;97969.19;;;7.45;79.70
72525;BME280;60547;48.502;8.996;2023-04-27T01:22:10;97961.31;;;7.43;79.62
72525;BME280;60547;48.502;8.996;2023-04-27T01:24:36;97982.16;;;7.52;80.45
72525;BME280;60547;48.502;8.996;2023-04-27T01:27:01;97975.56;;;7.42;80.04
72525;BME280;60547;48.502;8.996;2023-04-27T01:29:28;97978.38;;;7.38;80.28
72525;BME280;60547;48.502;8.996;2023-04-27T01:31:53;97981.22;;;7.31;80.74
72525;BME280;60547;48.502;8.996;2023-04-27T01:34:19;97973.88;;;7.18;81.51
72525;BME280;60547;48.502;8.996;2023-04-27T01:36:44;97983.66;;;7.26;81.28
72525;BME280;60547;48.502;8.996;2023-04-27T01:39:10;97966.38;;;7.15;81.81
72525;BME280;60547;48.502;8.996;2023-04-27T01:41:36;97966.00;;;7.12;82.28
72525;BME280;60547;48.502;8.996;2023-04-27T01:44:01;97977.81;;;7.17;82.60
72525;BME280;60547;48.502;8.996;2023-04-27T01:46:27;97966.44;;;7.11;83.00
72525;BME280;60547;48.502;8.996;2023-04-27T01:48:52;97975.09;;;7.13;82.54
72525;BME280;60547;48.502;8.996;2023-04-27T01:51:18;97968.81;;;7.09;82.09
72525;BME280;60547;48.502;8.996;2023-04-27T01:53:44;97986.16;;;7.13;83.09
72525;BME280;60547;48.502;8.996;2023-04-27T01:56:10;97957.84;;;7.02;82.86
72525;BME280;60547;48.502;8.996;2023-04-27T01:58:36;97977.03;;;7.16;83.07
72525;BME280;60547;48.502;8.996;2023-04-27T02:01:01;97988.94;;;7.13;83.76
72525;BME280;60547;48.502;8.996;2023-04-27T02:03:27;97972.03;;;7.04;83.47
72525;BME280;60547;48.502;8.996;2023-04-27T02:05:52;97972.03;;;7.04;83.51
72525;BME280;60547;48.502;8.996;2023-04-27T02:08:18;97971.59;;;7.09;83.29
72525;BME280;60547;48.502;8.996;2023-04-27T02:10:43;97986.91;;;7.17;83.89
72525;BME280;60547;48.502;8.996;2023-04-27T02:13:09;97973.56;;;7.08;83.74
72525;BME280;60547;48.502;8.996;2023-04-27T02:15:34;97980.31;;;7.07;83.46
72525;BME280;60547;48.502;8.996;2023-04-27T02:18:00;97987.75;;;7.14;83.20
72525;BME280;60547;48.502;8.996;2023-04-27T02:20:29;97986.16;;;7.13;82.74
72525;BME280;60547;48.502;8.996;2023-04-27T02:22:54;97992.88;;;7.16;83.13
72525;BME280;60547;48.502;8.996;2023-04-27T02:25:20;97994.84;;;7.15;83.44
72525;BME280;60547;48.502;8.996;2023-04-27T02:27:45;97990.88;;;7.16;83.59
72525;BME280;60547;48.502;8.996;2023-04-27T02:30:11;97979.88;;;7.09;83.76
72525;BME280;60547;48.502;8.996;2023-04-27T02:32:37;97979.88;;;7.09;83.78
72525;BME280;60547;48.502;8.996;2023-04-27T02:35:03;97982.31;;;7.03;83.09
72525;BME280;60547;48.502;8.996;2023-04-27T02:37:29;97986.28;;;7.02;83.92
72525;BME280;60547;48.502;8.996;2023-04-27T02:39:54;97987.41;;;7.08;83.32
72525;BME280;60547;48.502;8.996;2023-04-27T02:42:20;97983.84;;;7.08;83.55
72525;BME280;60547;48.502;8.996;2023-04-27T02:44:46;97999.22;;;7.12;83.68
72525;BME280;60547;48.502;8.996;2023-04-27T02:47:12;97966.53;;;7.00;83.59
72525;BME280;60547;48.502;8.996;2023-04-27T02:49:37;97986.16;;;7.13;83.09
72525;BME280;60547;48.502;8.996;2023-04-27T02:52:06;97983.09;;;7.04;83.59
72525;BME280;60547;48.502;8.996;2023-04-27T02:54:32;97996.41;;;7.16;83.48
72525;BME280;60547;48.502;8.996;2023-04-27T02:56:58;97986.63;;;7.08;83.53
72525;BME280;60547;48.502;8.996;2023-04-27T02:59:24;97992.91;;;7.12;84.04
72525;BME280;60547;48.502;8.996;2023-04-27T03:01:49;97983.44;;;7.09;83.37
72525;BME280;60547;48.502;8.996;2023-04-27T03:04:15;97994.88;;;7.11;83.40
72525;BME280;60547;48.502;8.996;2023-04-27T03:06:42;97982.28;;;7.07;83.44
72525;BME280;60547;48.502;8.996;2023-04-27T03:09:08;97994.84;;;7.15;83.51
72525;BME280;60547;48.502;8.996;2023-04-27T03:11:37;97992.50;;;7.13;83.59
72525;BME280;60547;48.502;8.996;2023-04-27T03:14:04;97994.84;;;7.15;83.45
72525;BME280;60547;48.502;8.996;2023-04-27T03:16:33;97973.69;;;6.98;83.35
72525;BME280;60547;48.502;8.996;2023-04-27T03:18:59;97990.09;;;7.16;82.94
72525;BME280;60547;48.502;8.996;2023-04-27T03:21:25;97994.03;;;7.18;83.40
72525;BME280;60547;48.502;8.996;2023-04-27T03:23:51;97996.78;;;7.18;83.52
72525;BME280;60547;48.502;8.996;2023-04-27T03:26:17;97989.28;;;7.19;83.24
72525;BME280;60547;48.502;8.996;2023-04-27T03:28:43;98000.38;;;7.15;83.42
72525;BME280;60547;48.502;8.996;2023-04-27T03:31:10;98000.78;;;7.13;83.34
72525;BME280;60547;48.502;8.996;2023-04-27T03:33:36;98003.94;;;7.16;83.34
72525;BME280;60547;48.502;8.996;2023-04-27T03:36:03;98001.94;;;7.16;83.11
72525;BME280;60547;48.502;8.996;2023-04-27T03:38:29;98005.91;;;7.15;83.71
72525;BME280;60547;48.502;8.996;2023-04-27T03:40:55;97994.91;;;7.08;83.83
72525;BME280;60547;48.502;8.996;2023-04-27T03:43:21;97980.78;;;6.99;83.85
72525;BME280;60547;48.502;8.996;2023-04-27T03:45:47;97997.69;;;7.08;83.36
72525;BME280;60547;48.502;8.996;2023-04-27T03:48:13;97982.28;;;7.07;82.70
72525;BME280;60547;48.502;8.996;2023-04-27T03:50:39;98007.38;;;7.27;82.57
72525;BME280;60547;48.502;8.996;2023-04-27T03:53:05;98008.16;;;7.27;82.24
72525;BME280;60547;48.502;8.996;2023-04-27T03:55:31;97991.78;;;7.06;82.56
72525;BME280;60547;48.502;8.996;2023-04-27T03:57:57;98013.09;;;7.09;82.59
72525;BME280;60547;48.502;8.996;2023-04-27T04:00:23;97991.53;;;6.90;82.73
72525;BME280;60547;48.502;8.996;2023-04-27T04:02:49;98009.97;;;7.03;82.87
72525;BME280;60547;48.502;8.996;2023-04-27T04:05:17;98007.69;;;6.95;83.22
72525;BME280;60547;48.502;8.996;2023-04-27T04:07:42;97989.63;;;6.83;83.06
72525;BME280;60547;48.502;8.996;2023-04-27T04:10:09;98003.72;;;6.96;83.28
72525;BME280;60547;48.502;8.996;2023-04-27T04:12:35;98011.63;;;6.97;83.46
72525;BME280;60547;48.502;8.996;2023-04-27T04:15:04;98000.72;;;6.79;83.30
72525;BME280;60547;48.502;8.996;2023-04-27T04:17:29;97982.66;;;6.68;83.39
72525;BME280;60547;48.502;8.996;2023-04-27T04:19:55;98009.38;;;6.85;83.62
72525;BME280;60547;48.502;8.996;2023-04-27T04:22:21;98011.72;;;6.87;82.96
72525;BME280;60547;48.502;8.996;2023-04-27T04:24:46;98011.00;;;6.79;83.45
72525;BME280;60547;48.502;8.996;2023-04-27T04:27:12;98014.19;;;6.77;82.94
72525;BME280;60547;48.502;8.996;2023-04-27T04:29:37;98017.31;;;6.79;83.21
72525;BME280;60547;48.502;8.996;2023-04-27T04:32:03;98007.13;;;6.69;83.41
72525;BME280;60547;48.502;8.996;2023-04-27T04:34:29;98022.78;;;6.87;83.06
72525;BME280;60547;48.502;8.996;2023-04-27T04:36:55;98025.13;;;6.92;82.44
72525;BME280;60547;48.502;8.996;2023-04-27T04:39:22;98023.47;;;6.98;82.51
72525;BME280;60547;48.502;8.996;2023-04-27T04:41:48;98031.41;;;6.96;83.03
72525;BME280;60547;48.502;8.996;2023-04-27T04:44:16;98010.97;;;6.83;82.86
72525;BME280;60547;48.502;8.996;2023-04-27T04:46:42;98031.84;;;6.91;83.39
72525;BME280;60547;48.502;8.996;2023-04-27T04:49:08;98021.28;;;6.78;83.15
72525;BME280;60547;48.502;8.996;2023-04-27T04:51:34;98020.47;;;6.82;83.91
72525;BME280;60547;48.502;8.996;2023-04-27T04:53:59;98045.66;;;6.91;84.04
72525;BME280;60547;48.502;8.996;2023-04-27T04:56:25;98006.25;;;6.79;84.39
72525;BME280;60547;48.502;8.996;2023-04-27T04:58:51;98036.19;;;6.92;84.58
72525;BME280;60547;48.502;8.996;2023-04-27T05:01:16;98022.03;;;6.83;84.73
72525;BME280;60547;48.502;8.996;2023-04-27T05:03:42;98033.78;;;6.94;84.38
72525;BME280;60547;48.502;8.996;2023-04-27T05:06:08;98031.81;;;6.94;84.30
72525;BME280;60547;48.502;8.996;2023-04-27T05:08:34;98034.53;;;6.98;84.61
72525;BME280;60547;48.502;8.996;2023-04-27T05:11:00;98034.94;;;6.96;84.03
72525;BME280;60547;48.502;8.996;2023-04-27T05:13:25;98014.09;;;6.88;83.78
72525;BME280;60547;48.502;8.996;2023-04-27T05:15:51;98032.16;;;7.00;84.24
72525;BME280;60547;48.502;8.996;2023-04-27T05:18:17;98033.72;;;7.01;84.11
72525;BME280;60547;48.502;8.996;2023-04-27T05:20:43;98038.44;;;7.04;84.21
72525;BME280;60547;48.502;8.996;2023-04-27T05:23:08;98031.31;;;7.03;83.82
72525;BME280;60547;48.502;8.996;2023-04-27T05:25:34;98034.84;;;7.07;83.99
72525;BME280;60547;48.502;8.996;2023-04-27T05:28:06;98019.47;;;7.02;83.82
72525;BME280;60547;48.502;8.996;2023-04-27T05:30:33;98030.44;;;7.13;83.66
72525;BME280;60547;48.502;8.996;2023-04-27T05:32:59;98021.38;;;7.09;82.83
72525;BME280;60547;48.502;8.996;2023-04-27T05:35:24;98049.25;;;7.29;81.88
72525;BME280;60547;48.502;8.996;2023-04-27T05:37:49;98026.41;;;7.21;82.15
72525;BME280;60547;48.502;8.996;2023-04-27T05:40:15;98042.50;;;7.33;82.53
72525;BME280;60547;48.502;8.996;2023-04-27T05:42:41;98041.97;;;7.45;81.95
72525;BME280;60547;48.502;8.996;2023-04-27T05:45:06;98038.69;;;7.54;82.41
72525;BME280;60547;48.502;8.996;2023-04-27T05:47:32;98018.88;;;7.59;82.20
72525;BME280;60547;48.502;8.996;2023-04-27T05:49:57;98027.41;;;7.72;81.87
72525;BME280;60547;48.502;8.996;2023-04-27T05:52:23;98038.31;;;7.86;81.26
72525;BME280;60547;48.502;8.996;2023-04-27T05:54:54;98046.44;;;8.00;81.05
72525;BME280;60547;48.502;8.996;2023-04-27T05:57:19;98043.72;;;7.97;80.50
72525;BME280;60547;48.502;8.996;2023-04-27T05:59:45;98050.31;;;8.06;80.22
72525;BME280;60547;48.502;8.996;2023-04-27T06:02:10;98056.97;;;8.13;79.94
72525;BME280;60547;48.502;8.996;2023-04-27T06:04:35;98054.47;;;8.22;79.48
72525;BME280;60547;48.502;8.996;2023-04-27T06:07:06;98051.16;;;8.34;78.64
72525;BME280;60547;48.502;8.996;2023-04-27T06:09:32;98060.63;;;8.36;78.66
72525;BME280;60547;48.502;8.996;2023-04-27T06:11:57;98062.16;;;8.41;78.15
72525;BME280;60547;48.502;8.996;2023-04-27T06:14:23;98070.00;;;8.46;78.13
72525;BME280;60547;48.502;8.996;2023-04-27T06:16:49;98060.28;;;8.34;78.77
72525;BME280;60547;48.502;8.996;2023-04-27T06:19:15;98081.03;;;8.50;78.92
72525;BME280;60547;48.502;8.996;2023-04-27T06:21:41;98063.94;;;8.55;78.88
72525;BME280;60547;48.502;8.996;2023-04-27T06:24:06;98061.53;;;8.57;78.75
72525;BME280;60547;48.502;8.996;2023-04-27T06:26:32;98072.94;;;8.62;79.08
72525;BME280;60547;48.502;8.996;2023-04-27T06:28:57;98068.28;;;8.56;79.39
72525;BME280;60547;48.502;8.996;2023-04-27T06:31:25;98083.91;;;8.69;79.23
72525;BME280;60547;48.502;8.996;2023-04-27T06:33:51;98076.66;;;8.52;79.10
72525;BME280;60547;48.502;8.996;2023-04-27T06:36:16;98077.66;;;8.65;79.48
72525;BME280;60547;48.502;8.996;2023-04-27T06:38:42;98076.31;;;8.73;78.96
72525;BME280;60547;48.502;8.996;2023-04-27T06:41:07;98064.88;;;8.71;78.71
72525;BME280;60547;48.502;8.996;2023-04-27T06:43:33;98065.22;;;8.73;78.02
72525;BME280;60547;48.502;8.996;2023-04-27T06:45:58;98084.31;;;8.95;78.39
72525;BME280;60547;48.502;8.996;2023-04-27T06:48:24;98077.03;;;9.04;78.28
72525;BME280;60547;48.502;8.996;2023-04-27T06:50:49;98086.00;;;9.12;78.20
72525;BME280;60547;48.502;8.996;2023-04-27T06:53:15;98086.91;;;9.29;77.76
72525;BME280;60547;48.502;8.996;2023-04-27T06:55:41;98080.44;;;9.35;78.19
72525;BME280;60547;48.502;8.996;2023-04-27T06:58:07;98085.13;;;9.62;75.37
72525;BME280;60547;48.502;8.996;2023-04-27T07:00:33;98087.28;;;9.74;74.52
72525;BME280;60547;48.502;8.996;2023-04-27T07:03:02;98083.22;;;9.79;74.36
72525;BME280;60547;48.502;8.996;2023-04-27T07:05:27;98078.72;;;9.85;73.80
72525;BME280;60547;48.502;8.996;2023-04-27T07:07:53;98079.31;;;9.96;75.09
72525;BME280;60547;48.502;8.996;2023-04-27T07:10:18;98089.94;;;10.21;73.45
72525;BME280;60547;48.502;8.996;2023-04-27T07:12:44;98064.81;;;10.04;71.40
72525;BME280;60547;48.502;8.996;2023-04-27T07:15:09;98083.78;;;10.10;71.73
72525;BME280;60547;48.502;8.996;2023-04-27T07:17:35;98083.22;;;10.18;70.63
72525;BME280;60547;48.502;8.996;2023-04-27T07:20:01;98083.50;;;10.24;71.58
72525;BME280;60547;48.502;8.996;2023-04-27T07:22:29;98068.41;;;10.25;70.01
72525;BME280;60547;48.502;8.996;2023-04-27T07:24:54;98079.78;;;10.66;69.70
72525;BME280;60547;48.502;8.996;2023-04-27T07:27:20;98055.56;;;10.31;68.01
72525;BME280;60547;48.502;8.996;2023-04-27T07:29:45;98073.16;;;10.60;68.05
72525;BME280;60547;48.502;8.996;2023-04-27T07:32:11;98076.22;;;10.66;67.96
72525;BME280;60547;48.502;8.996;2023-04-27T07:34:37;98068.94;;;11.05;68.59
72525;BME280;60547;48.502;8.996;2023-04-27T07:37:02;98066.41;;;11.10;67.37
72525;BME280;60547;48.502;8.996;2023-04-27T07:39:28;98059.34;;;11.22;66.41
72525;BME280;60547;48.502;8.996;2023-04-27T07:41:53;98054.03;;;11.27;65.02
72525;BME280;60547;48.502;8.996;2023-04-27T07:44:19;98063.16;;;11.28;65.24
72525;BME280;60547;48.502;8.996;2023-04-27T07:46:45;98058.38;;;11.28;63.47
72525;BME280;60547;48.502;8.996;2023-04-27T07:49:16;98071.25;;;11.39;63.41
72525;BME280;60547;48.502;8.996;2023-04-27T07:51:41;98057.09;;;11.62;64.10
72525;BME280;60547;48.502;8.996;2023-04-27T07:54:07;98053.63;;;11.58;63.54
72525;BME280;60547;48.502;8.996;2023-04-27T07:56:33;98063.88;;;11.77;63.43
72525;BME280;60547;48.502;8.996;2023-04-27T07:59:00;98037.94;;;11.64;63.29
72525;BME280;60547;48.502;8.996;2023-04-27T08:01:25;98061.13;;;11.90;62.30
72525;BME280;60547;48.502;8.996;2023-04-27T08:03:51;98053.19;;;11.88;61.77
72525;BME280;60547;48.502;8.996;2023-04-27T08:06:17;98048.78;;;11.75;61.66
72525;BME280;60547;48.502;8.996;2023-04-27T08:08:43;98067.69;;;11.83;61.88
72525;BME280;60547;48.502;8.996;2023-04-27T08:11:09;98059.47;;;11.92;59.80
72525;BME280;60547;48.502;8.996;2023-04-27T08:13:35;98066.00;;;12.15;59.14
72525;BME280;60547;48.502;8.996;2023-04-27T08:16:01;98072.91;;;11.81;60.58
72525;BME280;60547;48.502;8.996;2023-04-27T08:18:26;98062.34;;;11.89;59.18
72525;BME280;60547;48.502;8.996;2023-04-27T08:20:52;98062.06;;;12.12;59.45
72525;BME280;60547;48.502;8.996;2023-04-27T08:23:18;98058.53;;;12.24;58.46
72525;BME280;60547;48.502;8.996;2023-04-27T08:25:43;98060.66;;;12.33;59.52
72525;BME280;60547;48.502;8.996;2023-04-27T08:28:09;98062.84;;;12.13;59.74
72525;BME280;60547;48.502;8.996;2023-04-27T08:30:34;98060.00;;;12.29;57.01
72525;BME280;60547;48.502;8.996;2023-04-27T08:33:00;98049.56;;;12.04;57.86
72525;BME280;60547;48.502;8.996;2023-04-27T08:35:25;98060.75;;;12.17;59.64
72525;BME280;60547;48.502;8.996;2023-04-27T08:37:51;98044.25;;;12.35;60.89
72525;BME280;60547;48.502;8.996;2023-04-27T08:40:18;98032.31;;;12.47;62.97
72525;BME280;60547;48.502;8.996;2023-04-27T08:42:55;98032.22;;;12.51;61.31
72525;BME280;60547;48.502;8.996;2023-04-27T08:45:22;98036.91;;;12.67;61.82
72525;BME280;60547;48.502;8.996;2023-04-27T08:47:48;98028.06;;;12.81;59.74
72525;BME280;60547;48.502;8.996;2023-04-27T08:50:14;98049.63;;;12.93;59.91
72525;BME280;60547;48.502;8.996;2023-04-27T08:52:46;98026.28;;;12.87;60.11
72525;BME280;60547;48.502;8.996;2023-04-27T08:55:12;98045.94;;;12.71;59.92
72525;BME280;60547;48.502;8.996;2023-04-27T08:57:38;98049.28;;;12.91;60.76
72525;BME280;60547;48.502;8.996;2023-04-27T09:00:04;98041.75;;;13.13;60.77
72525;BME280;60547;48.502;8.996;2023-04-27T09:02:47;98036.66;;;13.46;60.99
72525;BME280;60547;48.502;8.996;2023-04-27T09:05:17;98035.44;;;13.47;60.69
72525;BME280;60547;48.502;8.996;2023-04-27T09:07:58;98046.63;;;13.69;59.75
72525;BME280;60547;48.502;8.996;2023-04-27T09:10:25;98029.59;;;13.54;57.97
72525;BME280;60547;48.502;8.996;2023-04-27T09:12:59;98043.19;;;13.65;57.81
72525;BME280;60547;48.502;8.996;2023-04-27T09:15:26;98041.56;;;13.77;56.10
72525;BME280;60547;48.502;8.996;2023-04-27T09:17:56;98034.94;;;13.83;54.68
72525;BME280;60547;48.502;8.996;2023-04-27T09:20:22;98043.13;;;14.00;57.03
72525;BME280;60547;48.502;8.996;2023-04-27T09:22:50;98021.84;;;14.02;53.06
72525;BME280;60547;48.502;8.996;2023-04-27T09:25:30;98036.34;;;14.10;53.54
72525;BME280;60547;48.502;8.996;2023-04-27T09:27:58;98026.31;;;14.21;51.12
72525;BME280;60547;48.502;8.996;2023-04-27T09:30:25;98042.31;;;14.43;48.53
72525;BME280;60547;48.502;8.996;2023-04-27T09:32:55;98032.41;;;14.51;47.45
72525;BME280;60547;48.502;8.996;2023-04-27T09:35:24;98032.91;;;14.59;48.14
72525;BME280;60547;48.502;8.996;2023-04-27T09:37:51;98021.16;;;14.82;48.04
72525;BME280;60547;48.502;8.996;2023-04-27T09:40:18;98026.22;;;15.05;45.35
72525;BME280;60547;48.502;8.996;2023-04-27T09:42:45;98031.00;;;14.86;44.34
72525;BME280;60547;48.502;8.996;2023-04-27T09:45:10;98016.22;;;14.95;44.43
72525;BME280;60547;48.502;8.996;2023-04-27T09:47:37;98012.50;;;15.07;45.78
72525;BME280;60547;48.502;8.996;2023-04-27T09:50:04;98017.50;;;15.03;44.48
72525;BME280;60547;48.502;8.996;2023-04-27T09:52:31;98016.56;;;15.06;46.22
72525;BME280;60547;48.502;8.996;2023-04-27T09:54:57;98007.34;;;14.97;47.71
72525;BME280;60547;48.502;8.996;2023-04-27T09:57:33;98023.25;;;15.00;45.11
72525;BME280;60547;48.502;8.996;2023-04-27T10:02:41;98013.97;;;15.39;45.83
72525;BME280;60547;48.502;8.996;2023-04-27T10:05:31;98015.06;;;15.51;46.09
72525;BME280;60547;48.502;8.996;2023-04-27T10:08:02;98013.69;;;15.74;45.62
72525;BME280;60547;48.502;8.996;2023-04-27T10:10:29;98018.13;;;15.16;45.35
72525;BME280;60547;48.502;8.996;2023-04-27T10:12:59;98021.28;;;15.37;46.76
72525;BME280;60547;48.502;8.996;2023-04-27T10:15:26;98012.09;;;15.45;46.41
72525;BME280;60547;48.502;8.996;2023-04-27T10:17:55;98008.97;;;15.89;44.12
72525;BME280;60547;48.502;8.996;2023-04-27T10:20:32;98006.63;;;16.06;44.28
72525;BME280;60547;48.502;8.996;2023-04-27T10:22:58;98011.16;;;16.03;42.56
72525;BME280;60547;48.502;8.996;2023-04-27T10:25:26;98017.97;;;16.21;43.45
72525;BME280;60547;48.502;8.996;2023-04-27T10:28:01;98018.69;;;16.39;43.10
72525;BME280;60547;48.502;8.996;2023-04-27T10:30:32;98016.59;;;16.58;43.40
72525;BME280;60547;48.502;8.996;2023-04-27T10:32:59;98017.63;;;16.79;42.05
72525;BME280;60547;48.502;8.996;2023-04-27T10:35:38;98010.25;;;16.48;42.38
72525;BME280;60547;48.502;8.996;2023-04-27T10:38:05;98007.94;;;16.80;43.78
72525;BME280;60547;48.502;8.996;2023-04-27T10:40:34;98004.44;;;16.94;42.89
72525;BME280;60547;48.502;8.996;2023-04-27T10:43:11;97995.88;;;16.89;41.44
72525;BME280;60547;48.502;8.996;2023-04-27T10:45:37;98006.78;;;17.20;42.95
72525;BME280;60547;48.502;8.996;2023-04-27T10:48:04;97998.75;;;17.27;42.28
72525;BME280;60547;48.502;8.996;2023-04-27T10:50:29;98003.78;;;17.47;41.55
72525;BME280;60547;48.502;8.996;2023-04-27T10:53:15;97993.88;;;17.52;43.05
72525;BME280;60547;48.502;8.996;2023-04-27T10:55:40;98006.81;;;17.58;42.36
72525;BME280;60547;48.502;8.996;2023-04-27T10:58:06;97998.16;;;17.47;41.04
72525;BME280;60547;48.502;8.996;2023-04-27T11:00:39;97994.94;;;17.16;42.06
72525;BME280;60547;48.502;8.996;2023-04-27T11:03:15;97992.13;;;17.16;41.79
72525;BME280;60547;48.502;8.996;2023-04-27T11:05:43;98000.13;;;17.08;42.15
72525;BME280;60547;48.502;8.996;2023-04-27T11:08:11;97998.09;;;17.08;42.61
72525;BME280;60547;48.502;8.996;2023-04-27T11:10:38;97983.81;;;17.60;42.85
72525;BME280;60547;48.502;8.996;2023-04-27T11:13:11;97994.72;;;17.67;41.20
72525;BME280;60547;48.502;8.996;2023-04-27T11:18:16;97981.66;;;17.93;41.60
72525;BME280;60547;48.502;8.996;2023-04-27T11:20:50;97980.78;;;18.31;41.28
72525;BME280;60547;48.502;8.996;2023-04-27T11:23:27;97981.66;;;18.37;40.00
72525;BME280;60547;48.502;8.996;2023-04-27T11:25:54;97972.13;;;18.35;42.08
72525;BME280;60547;48.502;8.996;2023-04-27T11:28:23;97966.88;;;18.28;40.80
72525;BME280;60547;48.502;8.996;2023-04-27T11:30:58;97974.72;;;18.68;40.04
72525;BME280;60547;48.502;8.996;2023-04-27T11:33:24;97972.19;;;18.70;40.86
72525;BME280;60547;48.502;8.996;2023-04-27T11:35:50;97981.34;;;18.65;39.47
72525;BME280;60547;48.502;8.996;2023-04-27T11:38:17;97979.72;;;18.93;41.36
72525;BME280;60547;48.502;8.996;2023-04-27T11:40:45;97981.75;;;18.28;40.40
72525;BME280;60547;48.502;8.996;2023-04-27T11:43:12;97975.22;;;18.52;40.93
72525;BME280;60547;48.502;8.996;2023-04-27T11:45:41;97981.16;;;18.39;41.38
72525;BME280;60547;48.502;8.996;2023-04-27T11:48:15;97973.78;;;18.91;41.54
72525;BME280;60547;48.502;8.996;2023-04-27T11:50:50;97980.28;;;19.18;40.00
72525;BME280;60547;48.502;8.996;2023-04-27T11:53:37;97969.66;;;18.57;38.67
72525;BME280;60547;48.502;8.996;2023-04-27T11:56:04;97964.44;;;18.50;39.45
72525;BME280;60547;48.502;8.996;2023-04-27T11:58:34;97966.50;;;18.35;39.98
72525;BME280;60547;48.502;8.996;2023-04-27T12:01:01;97952.22;;;18.09;39.96
72525;BME280;60547;48.502;8.996;2023-04-27T12:03:27;97958.06;;;18.20;42.00
72525;BME280;60547;48.502;8.996;2023-04-27T12:05:53;97938.97;;;18.45;40.85
72525;BME280;60547;48.502;8.996;2023-04-27T12:08:19;97946.47;;;18.48;40.31
72525;BME280;60547;48.502;8.996;2023-04-27T12:10:45;97945.09;;;18.43;40.48
72525;BME280;60547;48.502;8.996;2023-04-27T12:13:11;97957.69;;;17.98;41.96
72525;BME280;60547;48.502;8.996;2023-04-27T12:15:37;97944.84;;;17.82;41.94
72525;BME280;60547;48.502;8.996;2023-04-27T12:18:03;97934.38;;;17.83;41.79
72525;BME280;60547;48.502;8.996;2023-04-27T12:20:28;97933.50;;;18.06;42.45
72525;BME280;60547;48.502;8.996;2023-04-27T12:22:56;97945.69;;;18.32;42.07
72525;BME280;60547;48.502;8.996;2023-04-27T12:25:21;97947.78;;;18.02;40.04
72525;BME280;60547;48.502;8.996;2023-04-27T12:27:47;97952.34;;;18.00;42.66
72525;BME280;60547;48.502;8.996;2023-04-27T12:30:13;97945.06;;;17.93;42.02
72525;BME280;60547;48.502;8.996;2023-04-27T12:32:39;97945.03;;;17.79;43.90
72525;BME280;60547;48.502;8.996;2023-04-27T12:35:08;97944.16;;;17.72;42.62
72525;BME280;60547;48.502;8.996;2023-04-27T12:37:35;97944.84;;;17.82;41.37
72525;BME280;60547;48.502;8.996;2023-04-27T12:40:01;97944.16;;;17.72;42.72
72525;BME280;60547;48.502;8.996;2023-04-27T12:42:31;97954.97;;;17.50;45.03
72525;BME280;60547;48.502;8.996;2023-04-27T12:44:57;97937.59;;;17.37;44.03
72525;BME280;60547;48.502;8.996;2023-04-27T12:47:22;97944.38;;;17.45;45.25
72525;BME280;60547;48.502;8.996;2023-04-27T12:49:48;97944.78;;;17.53;43.66
72525;BME280;60547;48.502;8.996;2023-04-27T12:52:13;97932.63;;;17.70;44.54
72525;BME280;60547;48.502;8.996;2023-04-27T12:54:39;97939.41;;;17.79;43.40
72525;BME280;60547;48.502;8.996;2023-04-27T12:57:05;97926.88;;;18.09;44.16
72525;BME280;60547;48.502;8.996;2023-04-27T12:59:32;97932.19;;;18.36;42.23
72525;BME280;60547;48.502;8.996;2023-04-27T13:01:57;97938.78;;;18.63;41.29
72525;BME280;60547;48.502;8.996;2023-04-27T13:04:23;97924.41;;;18.81;41.56
72525;BME280;60547;48.502;8.996;2023-04-27T13:06:48;97914.53;;;18.71;40.45
72525;BME280;60547;48.502;8.996;2023-04-27T13:09:14;97920.63;;;18.84;40.21